Time;durP1;ratioP1;P1;durP2;ratioP2;P2;SDS_P1;SDS_P2;PMS_P1;PMS_P2;Temp;Humidity;BMP_temperature;BMP_pressure;BME280_temperature;BME280_humidity;BME280_pressure;Samples;Min_cycle;Max_cycle;Signal;HPM_P1;HPM_P2
2023/10/27 00:00:43;;;;;;;30.17;14.38;;;;;;;;;;5061028;28;20372;-66
2023/10/27 00:03:11;;;;;;;32.00;13.25;;;;;;;;;;5052955;28;20052;-66
2023/10/27 00:05:38;;;;;;;28.83;13.73;;;;;;;;;;5057708;28;20076;-68
2023/10/27 00:08:05;;;;;;;29.63;13.90;;;;;;;;;;5054624;28;20052;-65
2023/10/27 00:10:32;;;;;;;30.60;13.38;;;;;;;;;;5055891;28;20072;-66
2023/10/27 00:13:01;;;;;;;32.10;14.07;;;;;;;;;;5056531;28;20052;-66
2023/10/27 00:15:28;;;;;;;28.15;13.27;;;;;;;;;;5067829;28;20053;-66
2023/10/27 00:17:56;;;;;;;28.08;13.13;;;;;;;;;;5061267;28;20436;-66
2023/10/27 00:20:24;;;;;;;32.35;13.65;;;;;;;;;;5057113;28;20052;-67
2023/10/27 00:22:51;;;;;;;30.35;13.30;;;;;;;;;;5057143;28;21135;-66
2023/10/27 00:25:18;;;;;;;31.70;13.23;;;;;;;;;;5062203;28;20056;-66
2023/10/27 00:27:45;;;;;;;30.63;13.00;;;;;;;;;;5059948;28;20044;-67
2023/10/27 00:30:14;;;;;;;27.33;13.57;;;;;;;;;;5055951;28;20044;-67
2023/10/27 00:32:41;;;;;;;31.02;14.00;;;;;;;;;;5062764;28;20071;-66
2023/10/27 00:35:09;;;;;;;30.15;14.23;;;;;;;;;;5055716;28;20053;-66
2023/10/27 00:37:37;;;;;;;30.05;13.90;;;;;;;;;;5046332;28;20138;-66
2023/10/27 00:40:04;;;;;;;31.40;12.95;;;;;;;;;;5052878;28;20049;-68
2023/10/27 00:42:32;;;;;;;29.58;12.95;;;;;;;;;;5056267;28;20055;-67
2023/10/27 00:44:59;;;;;;;27.85;12.90;;;;;;;;;;5057886;28;20488;-66
2023/10/27 00:47:28;;;;;;;26.27;13.23;;;;;;;;;;5056638;28;20048;-67
2023/10/27 00:49:56;;;;;;;30.73;13.88;;;;;;;;;;5060376;28;20056;-67
2023/10/27 00:52:24;;;;;;;30.27;13.63;;;;;;;;;;5055929;28;20128;-66
2023/10/27 00:54:52;;;;;;;33.47;14.43;;;;;;;;;;5057128;28;20419;-67
2023/10/27 00:57:20;;;;;;;33.80;14.32;;;;;;;;;;5057498;28;20461;-66
2023/10/27 00:59:47;;;;;;;29.70;13.13;;;;;;;;;;5061171;28;20056;-66
2023/10/27 01:02:17;;;;;;;27.77;12.52;;;;;;;;;;5053296;28;20124;-67
2023/10/27 01:04:45;;;;;;;31.58;14.32;;;;;;;;;;5064403;28;20064;-67
2023/10/27 01:07:13;;;;;;;27.27;13.20;;;;;;;;;;5062111;28;20087;-65
2023/10/27 01:09:40;;;;;;;29.65;13.13;;;;;;;;;;5054475;28;20139;-66
2023/10/27 01:12:08;;;;;;;32.25;14.13;;;;;;;;;;5060601;28;20054;-66
2023/10/27 01:14:35;;;;;;;32.17;13.70;;;;;;;;;;5059835;28;20126;-66
2023/10/27 01:17:02;;;;;;;29.08;13.80;;;;;;;;;;5052812;28;20049;-67
2023/10/27 01:19:29;;;;;;;33.95;14.27;;;;;;;;;;5060705;28;20059;-66
2023/10/27 01:21:58;;;;;;;30.95;14.45;;;;;;;;;;5058681;28;20159;-66
2023/10/27 01:24:27;;;;;;;31.08;13.73;;;;;;;;;;5056858;28;20052;-66
2023/10/27 01:26:54;;;;;;;32.83;13.45;;;;;;;;;;5057246;28;20503;-66
2023/10/27 01:29:23;;;;;;;31.65;13.18;;;;;;;;;;5054264;28;20073;-69
2023/10/27 01:31:50;;;;;;;30.85;13.35;;;;;;;;;;5060549;28;20071;-66
2023/10/27 01:34:17;;;;;;;31.30;12.90;;;;;;;;;;5058882;28;20049;-68
2023/10/27 01:36:45;;;;;;;29.17;13.68;;;;;;;;;;5059478;28;20045;-68
2023/10/27 01:39:12;;;;;;;30.67;13.90;;;;;;;;;;5054659;28;20061;-67
2023/10/27 01:41:41;;;;;;;28.42;12.90;;;;;;;;;;5057863;28;20044;-66
2023/10/27 01:44:09;;;;;;;26.02;12.20;;;;;;;;;;5057928;28;20049;-66
2023/10/27 01:46:36;;;;;;;30.02;13.20;;;;;;;;;;5057519;28;20134;-66
2023/10/27 01:49:04;;;;;;;31.55;12.40;;;;;;;;;;5059313;28;20075;-66
2023/10/27 01:51:31;;;;;;;33.28;14.15;;;;;;;;;;5057121;28;20068;-66
2023/10/27 01:53:58;;;;;;;31.60;13.02;;;;;;;;;;5064641;28;20404;-66
2023/10/27 01:56:25;;;;;;;31.77;13.30;;;;;;;;;;5061836;28;20048;-67
2023/10/27 01:58:54;;;;;;;32.22;13.25;;;;;;;;;;5063738;28;20059;-66
2023/10/27 02:01:21;;;;;;;30.85;12.75;;;;;;;;;;5055366;28;20048;-66
2023/10/27 02:03:49;;;;;;;34.00;12.90;;;;;;;;;;5062502;28;20052;-66
2023/10/27 02:06:23;;;;;;;24.95;12.10;;;;;;;;;;5064555;28;20044;-66
2023/10/27 02:08:50;;;;;;;30.73;12.32;;;;;;;;;;5058590;28;20056;-67
2023/10/27 02:11:17;;;;;;;28.27;12.20;;;;;;;;;;5066200;28;20053;-67
2023/10/27 02:13:45;;;;;;;36.33;12.70;;;;;;;;;;5054247;28;20044;-66
2023/10/27 02:16:13;;;;;;;28.13;11.30;;;;;;;;;;5058096;28;20063;-68
2023/10/27 02:18:40;;;;;;;26.88;11.50;;;;;;;;;;5056039;28;20049;-66
2023/10/27 02:21:08;;;;;;;28.95;12.20;;;;;;;;;;5066381;28;20064;-66
2023/10/27 02:23:35;;;;;;;27.73;12.20;;;;;;;;;;5063153;28;20052;-67
2023/10/27 02:26:02;;;;;;;28.48;12.10;;;;;;;;;;5063481;28;20428;-66
2023/10/27 02:28:30;;;;;;;27.67;11.88;;;;;;;;;;5061512;28;20073;-65
2023/10/27 02:30:57;;;;;;;26.88;11.77;;;;;;;;;;5068401;28;20055;-66
2023/10/27 02:33:25;;;;;;;23.27;11.18;;;;;;;;;;5064023;28;20045;-66
2023/10/27 02:35:53;;;;;;;23.70;10.98;;;;;;;;;;5055946;28;20045;-66
2023/10/27 02:38:20;;;;;;;25.73;11.13;;;;;;;;;;5070808;28;20626;-66
2023/10/27 02:40:47;;;;;;;28.48;10.93;;;;;;;;;;5058431;28;20044;-65
2023/10/27 02:43:14;;;;;;;23.45;10.57;;;;;;;;;;5062512;28;20365;-66
2023/10/27 02:45:42;;;;;;;26.80;10.63;;;;;;;;;;5065296;28;20071;-67
2023/10/27 02:48:09;;;;;;;22.88;10.15;;;;;;;;;;5067396;28;20139;-66
2023/10/27 02:50:38;;;;;;;28.17;10.48;;;;;;;;;;5060955;28;20483;-65
2023/10/27 02:53:05;;;;;;;24.38;10.27;;;;;;;;;;5057984;28;20049;-67
2023/10/27 02:55:34;;;;;;;27.23;11.10;;;;;;;;;;5060412;28;20407;-66
2023/10/27 02:58:02;;;;;;;21.23;10.25;;;;;;;;;;5059910;28;20048;-66
2023/10/27 03:00:29;;;;;;;23.70;10.20;;;;;;;;;;5057809;28;20044;-66
2023/10/27 03:02:57;;;;;;;23.60;10.55;;;;;;;;;;5061350;28;20060;-67
2023/10/27 03:05:24;;;;;;;25.00;10.25;;;;;;;;;;5060582;28;20078;-66
2023/10/27 03:07:53;;;;;;;22.05;10.60;;;;;;;;;;5063311;28;20067;-66
2023/10/27 03:10:20;;;;;;;23.75;10.00;;;;;;;;;;5062539;28;20177;-66
2023/10/27 03:12:47;;;;;;;22.25;10.25;;;;;;;;;;5064836;28;20517;-66
2023/10/27 03:15:14;;;;;;;21.98;10.55;;;;;;;;;;5060499;28;20048;-66
2023/10/27 03:17:42;;;;;;;19.75;9.95;;;;;;;;;;5067449;28;20054;-66
2023/10/27 03:20:09;;;;;;;21.83;10.20;;;;;;;;;;5051496;28;20060;-67
2023/10/27 03:22:37;;;;;;;22.05;10.32;;;;;;;;;;5065308;28;20076;-66
2023/10/27 03:25:06;;;;;;;22.63;10.60;;;;;;;;;;5064054;28;20484;-66
2023/10/27 03:27:33;;;;;;;20.27;9.35;;;;;;;;;;5064573;28;20599;-67
2023/10/27 03:30:00;;;;;;;21.98;8.95;;;;;;;;;;5062308;28;20041;-65
2023/10/27 03:32:28;;;;;;;20.80;10.27;;;;;;;;;;5063621;28;20059;-65
2023/10/27 03:34:56;;;;;;;22.08;9.80;;;;;;;;;;5063412;28;20050;-66
2023/10/27 03:37:23;;;;;;;22.40;9.35;;;;;;;;;;5063654;28;20091;-66
2023/10/27 03:39:51;;;;;;;18.88;9.15;;;;;;;;;;5065375;28;20091;-66
2023/10/27 03:42:19;;;;;;;18.88;9.15;;;;;;;;;;5058647;28;20067;-68
2023/10/27 03:44:46;;;;;;;19.60;8.98;;;;;;;;;;5061847;28;20376;-66
2023/10/27 03:47:15;;;;;;;21.25;8.77;;;;;;;;;;5051990;28;20124;-67
2023/10/27 03:49:42;;;;;;;18.33;8.85;;;;;;;;;;5056906;28;20118;-66
2023/10/27 03:52:09;;;;;;;19.25;8.63;;;;;;;;;;5059560;28;20056;-67
2023/10/27 03:54:37;;;;;;;20.40;9.15;;;;;;;;;;5059737;28;20048;-66
2023/10/27 03:57:04;;;;;;;18.52;8.85;;;;;;;;;;5063113;28;20056;-66
2023/10/27 03:59:33;;;;;;;21.33;9.45;;;;;;;;;;5062549;28;20055;-66
2023/10/27 04:02:00;;;;;;;17.85;9.30;;;;;;;;;;5063806;28;20048;-66
2023/10/27 04:04:27;;;;;;;16.63;9.45;;;;;;;;;;5060128;28;20128;-66
2023/10/27 04:06:56;;;;;;;21.75;9.18;;;;;;;;;;5059875;28;20687;-66
2023/10/27 04:09:24;;;;;;;22.83;9.82;;;;;;;;;;5061676;28;20060;-66
2023/10/27 04:11:51;;;;;;;24.98;9.52;;;;;;;;;;5059632;28;20057;-66
2023/10/27 04:14:18;;;;;;;19.85;9.43;;;;;;;;;;5061404;28;20106;-67
2023/10/27 04:16:47;;;;;;;19.52;9.52;;;;;;;;;;5059564;28;20075;-66
2023/10/27 04:19:14;;;;;;;20.48;10.65;;;;;;;;;;5058005;28;20053;-66
2023/10/27 04:21:42;;;;;;;21.58;10.10;;;;;;;;;;5062725;28;20045;-67
2023/10/27 04:24:09;;;;;;;20.60;9.80;;;;;;;;;;5062632;28;20052;-66
2023/10/27 04:26:37;;;;;;;21.15;9.65;;;;;;;;;;5061713;28;20047;-67
2023/10/27 04:29:04;;;;;;;24.17;10.65;;;;;;;;;;5062405;28;20071;-66
2023/10/27 04:31:31;;;;;;;21.70;10.07;;;;;;;;;;5058259;28;20055;-67
2023/10/27 04:34:00;;;;;;;25.95;10.10;;;;;;;;;;5056144;28;20041;-66
2023/10/27 04:36:27;;;;;;;23.17;10.80;;;;;;;;;;5060240;28;20049;-66
2023/10/27 04:38:54;;;;;;;19.98;9.27;;;;;;;;;;5063875;28;20520;-67
2023/10/27 04:41:22;;;;;;;26.33;10.65;;;;;;;;;;5055621;28;20049;-66
2023/10/27 04:43:49;;;;;;;25.67;10.32;;;;;;;;;;5058215;28;20049;-67
2023/10/27 04:46:16;;;;;;;20.63;9.15;;;;;;;;;;5062657;28;20071;-67
2023/10/27 04:48:43;;;;;;;20.25;9.82;;;;;;;;;;5060491;28;20048;-66
2023/10/27 04:51:12;;;;;;;22.83;9.63;;;;;;;;;;5057964;28;20048;-67
2023/10/27 04:53:39;;;;;;;24.35;10.35;;;;;;;;;;5061287;28;20391;-67
2023/10/27 04:56:07;;;;;;;19.77;9.38;;;;;;;;;;5054919;28;20053;-68
2023/10/27 04:58:34;;;;;;;21.00;9.18;;;;;;;;;;5061366;28;20049;-67
2023/10/27 05:01:02;;;;;;;22.50;10.00;;;;;;;;;;5061890;28;20044;-68
2023/10/27 05:03:30;;;;;;;23.08;9.25;;;;;;;;;;5062307;28;20056;-67
2023/10/27 05:05:57;;;;;;;21.08;9.52;;;;;;;;;;5058663;28;20574;-67
2023/10/27 05:08:25;;;;;;;23.95;10.43;;;;;;;;;;5061571;28;20059;-66
2023/10/27 05:10:53;;;;;;;23.05;10.52;;;;;;;;;;5056278;28;20048;-67
2023/10/27 05:13:20;;;;;;;23.08;9.95;;;;;;;;;;5056927;28;20041;-66
2023/10/27 05:15:54;;;;;;;22.65;9.68;;;;;;;;;;5065324;28;20043;-66
2023/10/27 05:18:21;;;;;;;23.20;9.95;;;;;;;;;;5066144;28;20048;-66
2023/10/27 05:20:48;;;;;;;21.40;9.70;;;;;;;;;;5058841;28;20056;-67
2023/10/27 05:23:16;;;;;;;22.65;9.88;;;;;;;;;;5053722;28;20048;-68
2023/10/27 05:25:44;;;;;;;23.48;10.13;;;;;;;;;;5060000;28;20063;-66
2023/10/27 05:28:12;;;;;;;25.40;10.13;;;;;;;;;;5053525;28;20041;-67
2023/10/27 05:30:43;;;;;;;21.13;9.55;;;;;;;;;;5058621;28;20060;-66
2023/10/27 05:33:10;;;;;;;21.08;9.65;;;;;;;;;;5061379;28;20052;-66
2023/10/27 05:35:37;;;;;;;26.55;10.32;;;;;;;;;;5055546;28;20040;-70
2023/10/27 05:38:05;;;;;;;22.23;9.90;;;;;;;;;;5060465;28;20049;-66
2023/10/27 05:40:33;;;;;;;24.95;9.20;;;;;;;;;;5059347;28;20052;-66
2023/10/27 05:43:02;;;;;;;24.20;10.65;;;;;;;;;;5061899;28;20056;-67
2023/10/27 05:45:29;;;;;;;21.42;10.38;;;;;;;;;;5057630;28;20063;-66
2023/10/27 05:47:56;;;;;;;23.15;9.65;;;;;;;;;;5053310;28;20052;-69
2023/10/27 05:50:24;;;;;;;20.63;8.98;;;;;;;;;;5060836;28;20063;-66
2023/10/27 05:52:51;;;;;;;20.92;10.15;;;;;;;;;;5059644;28;20079;-65
2023/10/27 05:55:18;;;;;;;20.58;10.07;;;;;;;;;;5059552;28;20044;-66
2023/10/27 05:57:45;;;;;;;25.67;10.80;;;;;;;;;;5054635;28;20487;-66
2023/10/27 06:00:14;;;;;;;24.63;10.05;;;;;;;;;;5061881;28;20048;-69
2023/10/27 06:02:41;;;;;;;23.13;10.30;;;;;;;;;;5054874;28;20488;-66
2023/10/27 06:05:09;;;;;;;20.35;10.00;;;;;;;;;;5063047;28;20055;-66
2023/10/27 06:07:36;;;;;;;21.05;9.52;;;;;;;;;;5059890;28;20056;-66
2023/10/27 06:10:04;;;;;;;19.48;9.52;;;;;;;;;;5063487;28;20067;-67
2023/10/27 06:12:31;;;;;;;24.17;11.02;;;;;;;;;;5058618;28;20056;-66
2023/10/27 06:14:58;;;;;;;25.05;10.23;;;;;;;;;;5058580;28;20376;-66
2023/10/27 06:17:27;;;;;;;22.20;9.85;;;;;;;;;;5061128;28;20482;-66
2023/10/27 06:19:54;;;;;;;20.42;9.07;;;;;;;;;;5061128;28;20055;-66
2023/10/27 06:22:22;;;;;;;17.70;9.18;;;;;;;;;;5060333;28;20396;-66
2023/10/27 06:24:49;;;;;;;18.95;8.70;;;;;;;;;;5056338;28;20045;-66
2023/10/27 06:27:16;;;;;;;23.25;9.30;;;;;;;;;;5062563;28;20068;-67
2023/10/27 06:29:43;;;;;;;19.52;9.15;;;;;;;;;;5054414;28;20053;-66
2023/10/27 06:32:11;;;;;;;20.83;8.98;;;;;;;;;;5059133;28;20080;-66
2023/10/27 06:34:39;;;;;;;17.67;8.90;;;;;;;;;;5058028;28;20049;-68
2023/10/27 06:37:07;;;;;;;19.50;8.88;;;;;;;;;;5059802;28;20072;-66
2023/10/27 06:39:35;;;;;;;21.33;8.65;;;;;;;;;;5058497;28;20060;-67
2023/10/27 06:42:02;;;;;;;17.90;8.48;;;;;;;;;;5063251;28;20054;-66
2023/10/27 06:44:29;;;;;;;21.08;8.10;;;;;;;;;;5056375;28;20071;-67
2023/10/27 06:46:57;;;;;;;18.33;10.10;;;;;;;;;;5053008;28;20133;-66
2023/10/27 06:49:25;;;;;;;23.15;10.73;;;;;;;;;;5067575;28;20052;-66
2023/10/27 06:51:53;;;;;;;25.48;10.20;;;;;;;;;;5064334;28;20052;-66
2023/10/27 06:54:21;;;;;;;19.15;8.93;;;;;;;;;;5057937;28;20052;-68
2023/10/27 06:56:50;;;;;;;20.65;9.45;;;;;;;;;;5060123;28;20374;-67
2023/10/27 06:59:17;;;;;;;18.70;8.75;;;;;;;;;;5062010;28;20066;-67
2023/10/27 07:01:45;;;;;;;19.23;8.10;;;;;;;;;;5056143;28;20503;-67
2023/10/27 07:04:13;;;;;;;19.77;9.10;;;;;;;;;;5058619;28;20571;-66
2023/10/27 07:06:41;;;;;;;20.60;8.27;;;;;;;;;;5054757;28;20110;-67
2023/10/27 07:09:09;;;;;;;20.27;8.43;;;;;;;;;;5063697;28;20508;-67
2023/10/27 07:11:38;;;;;;;18.27;8.85;;;;;;;;;;5066309;28;20530;-67
2023/10/27 07:14:05;;;;;;;18.77;8.30;;;;;;;;;;5065515;28;20056;-66
2023/10/27 07:16:33;;;;;;;18.33;8.65;;;;;;;;;;5063816;28;20049;-69
2023/10/27 07:19:00;;;;;;;18.02;8.75;;;;;;;;;;5058136;28;20416;-66
2023/10/27 07:21:27;;;;;;;21.13;9.13;;;;;;;;;;5052812;28;20068;-66
2023/10/27 07:23:55;;;;;;;16.38;8.35;;;;;;;;;;5059999;28;20510;-66
2023/10/27 07:26:23;;;;;;;17.98;8.18;;;;;;;;;;5058929;28;20648;-66
2023/10/27 07:28:50;;;;;;;16.50;8.25;;;;;;;;;;5061497;28;20045;-67
2023/10/27 07:31:18;;;;;;;17.13;9.00;;;;;;;;;;5054078;28;20041;-66
2023/10/27 07:33:45;;;;;;;20.75;9.18;;;;;;;;;;5061868;28;20089;-66
2023/10/27 07:36:12;;;;;;;17.60;8.80;;;;;;;;;;5056269;28;20144;-67
2023/10/27 07:38:40;;;;;;;20.73;9.45;;;;;;;;;;5060175;28;20053;-66
2023/10/27 07:41:08;;;;;;;21.27;9.52;;;;;;;;;;5055436;28;20480;-67
2023/10/27 07:43:37;;;;;;;21.23;9.43;;;;;;;;;;5057621;28;20094;-67
2023/10/27 07:46:04;;;;;;;19.42;9.85;;;;;;;;;;5060219;28;20052;-66
2023/10/27 07:48:32;;;;;;;22.30;10.05;;;;;;;;;;5052792;28;20060;-69
2023/10/27 07:50:59;;;;;;;23.92;10.10;;;;;;;;;;5054946;28;20071;-66
2023/10/27 07:53:26;;;;;;;25.75;10.00;;;;;;;;;;5057371;28;20049;-66
2023/10/27 07:55:54;;;;;;;20.13;8.77;;;;;;;;;;5063220;28;20063;-67
2023/10/27 07:58:22;;;;;;;17.77;8.68;;;;;;;;;;5056165;28;20049;-66
2023/10/27 08:00:52;;;;;;;19.52;9.32;;;;;;;;;;5057486;28;20040;-67
2023/10/27 08:03:21;;;;;;;20.88;8.85;;;;;;;;;;5052215;28;20102;-68
2023/10/27 08:05:48;;;;;;;21.35;8.95;;;;;;;;;;5065480;28;20381;-67
2023/10/27 08:08:16;;;;;;;20.40;8.77;;;;;;;;;;5055192;28;20049;-67
2023/10/27 08:10:46;;;;;;;18.70;8.48;;;;;;;;;;5058829;28;20075;-66
2023/10/27 08:13:16;;;;;;;16.08;8.05;;;;;;;;;;5056872;28;20044;-66
2023/10/27 08:15:45;;;;;;;16.38;8.15;;;;;;;;;;5055829;28;20044;-66
2023/10/27 08:18:14;;;;;;;14.32;7.13;;;;;;;;;;5052469;28;20055;-67
2023/10/27 08:20:41;;;;;;;17.48;7.78;;;;;;;;;;5052853;28;20073;-66
2023/10/27 08:23:09;;;;;;;19.05;8.68;;;;;;;;;;5055613;28;20075;-68
2023/10/27 08:25:36;;;;;;;19.77;8.43;;;;;;;;;;5059800;28;20053;-66
2023/10/27 08:28:04;;;;;;;19.55;8.57;;;;;;;;;;5061604;28;20102;-66
2023/10/27 08:30:31;;;;;;;15.85;8.18;;;;;;;;;;5062483;28;20126;-66
2023/10/27 08:32:58;;;;;;;16.10;8.80;;;;;;;;;;5060166;28;20055;-67
2023/10/27 08:35:27;;;;;;;19.83;8.82;;;;;;;;;;5066187;28;20052;-68
2023/10/27 08:37:54;;;;;;;18.67;8.80;;;;;;;;;;5066814;28;20446;-66
2023/10/27 08:40:22;;;;;;;18.77;8.35;;;;;;;;;;5055781;28;20056;-66
2023/10/27 08:42:50;;;;;;;17.75;8.98;;;;;;;;;;5062122;28;20044;-67
2023/10/27 08:45:17;;;;;;;17.58;9.05;;;;;;;;;;5054967;28;20518;-67
2023/10/27 08:47:45;;;;;;;19.80;8.93;;;;;;;;;;5051207;28;20049;-67
2023/10/27 08:50:12;;;;;;;17.80;8.63;;;;;;;;;;5061191;28;20052;-67
2023/10/27 08:52:41;;;;;;;15.35;8.63;;;;;;;;;;5054310;28;20057;-69
2023/10/27 08:55:09;;;;;;;15.35;8.57;;;;;;;;;;5060859;28;20048;-66
2023/10/27 08:57:36;;;;;;;18.00;8.90;;;;;;;;;;5052812;28;20055;-67
2023/10/27 09:00:05;;;;;;;16.42;8.55;;;;;;;;;;5056224;28;20055;-67
2023/10/27 09:02:34;;;;;;;14.70;7.43;;;;;;;;;;5060124;28;20049;-66
2023/10/27 09:05:02;;;;;;;18.67;8.45;;;;;;;;;;5056711;28;20052;-66
2023/10/27 09:07:30;;;;;;;12.82;7.45;;;;;;;;;;5063000;28;20122;-66
2023/10/27 09:09:59;;;;;;;14.40;8.43;;;;;;;;;;5057085;28;20052;-66
2023/10/27 09:12:28;;;;;;;11.93;7.20;;;;;;;;;;5060534;28;20567;-67
2023/10/27 09:15:04;;;;;;;13.02;7.53;;;;;;;;;;5059747;28;20434;-66
2023/10/27 09:17:31;;;;;;;15.50;7.22;;;;;;;;;;5064524;28;20044;-68
2023/10/27 09:20:06;;;;;;;13.00;7.47;;;;;;;;;;5061164;28;20404;-66
2023/10/27 09:22:33;;;;;;;14.48;7.80;;;;;;;;;;5057397;28;20066;-66
2023/10/27 09:25:14;;;;;;;13.10;7.55;;;;;;;;;;5059965;28;20041;-66
2023/10/27 09:27:45;;;;;;;12.18;7.07;;;;;;;;;;5056917;28;20052;-67
2023/10/27 09:30:26;;;;;;;12.10;7.53;;;;;;;;;;5061386;28;20047;-66
2023/10/27 09:32:53;;;;;;;12.93;7.22;;;;;;;;;;5064840;28;20496;-67
2023/10/27 09:35:22;;;;;;;12.63;7.43;;;;;;;;;;5052686;28;20040;-66
2023/10/27 09:37:50;;;;;;;13.77;6.93;;;;;;;;;;5053545;28;20080;-68
2023/10/27 09:40:19;;;;;;;12.60;7.78;;;;;;;;;;5061383;28;20053;-67
2023/10/27 09:42:47;;;;;;;14.18;7.78;;;;;;;;;;5061019;28;20044;-67
2023/10/27 09:45:14;;;;;;;11.95;7.50;;;;;;;;;;5059814;28;20045;-67
2023/10/27 09:47:47;;;;;;;10.98;7.13;;;;;;;;;;5057502;28;20044;-66
2023/10/27 09:50:15;;;;;;;12.23;7.10;;;;;;;;;;5059988;28;20048;-67
2023/10/27 09:52:43;;;;;;;12.32;7.22;;;;;;;;;;5058464;28;20048;-68
2023/10/27 09:55:13;;;;;;;14.15;7.10;;;;;;;;;;5061177;28;20049;-66
2023/10/27 09:57:44;;;;;;;11.90;7.03;;;;;;;;;;5054886;28;20056;-66
2023/10/27 10:00:13;;;;;;;11.52;6.90;;;;;;;;;;5058619;28;20082;-68
2023/10/27 10:02:42;;;;;;;12.18;6.38;;;;;;;;;;5055238;28;20048;-66
2023/10/27 10:05:11;;;;;;;10.57;6.00;;;;;;;;;;5058303;28;20406;-66
2023/10/27 10:07:41;;;;;;;13.07;7.00;;;;;;;;;;5058518;28;20045;-66
2023/10/27 10:10:18;;;;;;;10.60;5.93;;;;;;;;;;5063063;28;20664;-68
2023/10/27 10:13:00;;;;;;;10.00;6.47;;;;;;;;;;5059688;28;20049;-68
2023/10/27 10:15:27;;;;;;;11.15;6.32;;;;;;;;;;5065859;28;20541;-66
2023/10/27 10:17:55;;;;;;;9.60;6.18;;;;;;;;;;5064266;28;20492;-68
2023/10/27 10:20:37;;;;;;;11.10;6.53;;;;;;;;;;5061735;28;20045;-68
2023/10/27 10:23:05;;;;;;;10.57;6.30;;;;;;;;;;5066618;28;20061;-67
2023/10/27 10:25:33;;;;;;;10.18;6.40;;;;;;;;;;5068004;28;20044;-67
2023/10/27 10:28:19;;;;;;;10.80;6.78;;;;;;;;;;5068217;28;20048;-66
2023/10/27 10:30:48;;;;;;;9.52;6.40;;;;;;;;;;5064806;28;20045;-67
2023/10/27 10:33:19;;;;;;;10.20;6.13;;;;;;;;;;5066360;28;20055;-66
2023/10/27 10:35:47;;;;;;;16.50;7.18;;;;;;;;;;5063846;28;20127;-65
2023/10/27 10:38:37;;;;;;;12.02;6.65;;;;;;;;;;5067920;28;20499;-66
2023/10/27 10:41:04;;;;;;;9.75;6.07;;;;;;;;;;5061828;28;20432;-66
2023/10/27 10:43:33;;;;;;;11.00;6.15;;;;;;;;;;5058336;28;20049;-65
2023/10/27 10:46:03;;;;;;;9.95;6.20;;;;;;;;;;5062009;28;20052;-65
2023/10/27 10:48:31;;;;;;;11.02;6.53;;;;;;;;;;5057419;28;20127;-67
2023/10/27 10:51:03;;;;;;;9.88;6.47;;;;;;;;;;5068789;28;20495;-65
2023/10/27 10:53:31;;;;;;;11.50;7.23;;;;;;;;;;5055420;28;20405;-66
2023/10/27 10:56:00;;;;;;;13.13;6.50;;;;;;;;;;5067857;28;20304;-66
2023/10/27 10:58:28;;;;;;;9.88;5.72;;;;;;;;;;5059374;28;20479;-65
2023/10/27 11:00:56;;;;;;;10.23;6.45;;;;;;;;;;5066666;28;20044;-65
2023/10/27 11:03:25;;;;;;;13.38;6.65;;;;;;;;;;5055159;28;20507;-65
2023/10/27 11:05:54;;;;;;;11.02;6.80;;;;;;;;;;5060145;28;20480;-65
2023/10/27 11:08:25;;;;;;;12.45;6.68;;;;;;;;;;5058334;28;20044;-65
2023/10/27 11:11:02;;;;;;;12.43;7.18;;;;;;;;;;5067674;28;20060;-64
2023/10/27 11:13:31;;;;;;;11.25;7.13;;;;;;;;;;5065528;28;20056;-65
2023/10/27 11:15:59;;;;;;;10.20;6.75;;;;;;;;;;5063760;28;20414;-65
2023/10/27 11:18:31;;;;;;;12.55;7.57;;;;;;;;;;5061457;28;20531;-65
2023/10/27 11:20:58;;;;;;;12.27;7.90;;;;;;;;;;5059389;28;20134;-64
2023/10/27 11:23:31;;;;;;;11.50;7.30;;;;;;;;;;5058049;28;20067;-65
2023/10/27 11:26:03;;;;;;;11.43;7.38;;;;;;;;;;5067563;28;20495;-66
2023/10/27 11:28:30;;;;;;;11.90;7.25;;;;;;;;;;5063535;28;20052;-65
2023/10/27 11:31:01;;;;;;;13.93;8.13;;;;;;;;;;5067926;28;20458;-64
2023/10/27 11:33:31;;;;;;;11.73;7.05;;;;;;;;;;5064458;28;20052;-65
2023/10/27 11:35:58;;;;;;;11.65;7.05;;;;;;;;;;5058630;28;20045;-64
2023/10/27 11:38:31;;;;;;;13.25;7.43;;;;;;;;;;5061473;28;20052;-64
2023/10/27 11:41:10;;;;;;;14.20;7.70;;;;;;;;;;5060358;28;20515;-64
2023/10/27 11:43:37;;;;;;;12.52;7.47;;;;;;;;;;5056922;28;20045;-65
2023/10/27 11:46:14;;;;;;;12.68;7.15;;;;;;;;;;5061112;28;20496;-65
2023/10/27 11:48:43;;;;;;;17.70;7.63;;;;;;;;;;5055098;28;20041;-65
2023/10/27 11:51:11;;;;;;;12.68;7.30;;;;;;;;;;5056767;28;20423;-65
2023/10/27 11:53:41;;;;;;;12.88;7.40;;;;;;;;;;5066336;28;20052;-65
2023/10/27 11:56:08;;;;;;;12.10;7.05;;;;;;;;;;5059451;28;20433;-65
2023/10/27 11:58:36;;;;;;;13.60;8.27;;;;;;;;;;5059984;28;20487;-64
2023/10/27 12:01:03;;;;;;;15.50;7.65;;;;;;;;;;5058631;28;20044;-64
2023/10/27 12:03:30;;;;;;;16.60;8.27;;;;;;;;;;5058911;28;20045;-65
2023/10/27 12:05:59;;;;;;;15.32;8.57;;;;;;;;;;5063875;28;20126;-64
2023/10/27 12:08:26;;;;;;;12.98;7.90;;;;;;;;;;5061948;28;20139;-64
2023/10/27 12:10:53;;;;;;;13.27;8.40;;;;;;;;;;5060076;28;20056;-66
2023/10/27 12:13:21;;;;;;;13.00;8.02;;;;;;;;;;5061296;28;20111;-64
2023/10/27 12:15:49;;;;;;;12.95;8.40;;;;;;;;;;5057489;28;20044;-64
2023/10/27 12:18:16;;;;;;;12.10;7.75;;;;;;;;;;5062886;28;20091;-64
2023/10/27 12:20:43;;;;;;;15.10;8.90;;;;;;;;;;5064081;28;20052;-64
2023/10/27 12:23:12;;;;;;;14.90;8.50;;;;;;;;;;5060404;28;20404;-64
2023/10/27 12:25:40;;;;;;;13.88;8.13;;;;;;;;;;5065744;28;20044;-65
2023/10/27 12:28:08;;;;;;;12.48;8.00;;;;;;;;;;5055470;28;20056;-65
2023/10/27 12:30:36;;;;;;;17.05;8.82;;;;;;;;;;5062864;28;20051;-65
2023/10/27 12:33:04;;;;;;;17.00;9.63;;;;;;;;;;5058037;28;20076;-65
2023/10/27 12:35:32;;;;;;;17.77;9.02;;;;;;;;;;5061325;28;20094;-65
2023/10/27 12:37:59;;;;;;;15.65;8.52;;;;;;;;;;5061069;28;20061;-64
2023/10/27 12:40:28;;;;;;;12.75;8.98;;;;;;;;;;5068279;28;20055;-64
2023/10/27 12:42:55;;;;;;;14.98;8.63;;;;;;;;;;5063761;28;20056;-64
2023/10/27 12:45:23;;;;;;;14.15;8.60;;;;;;;;;;5056430;28;20421;-65
2023/10/27 12:47:51;;;;;;;12.63;8.27;;;;;;;;;;5057329;28;20053;-65
2023/10/27 12:50:18;;;;;;;16.60;8.48;;;;;;;;;;5059983;28;20052;-65
2023/10/27 12:52:45;;;;;;;12.82;8.32;;;;;;;;;;5060147;28;20049;-66
2023/10/27 12:55:13;;;;;;;12.80;8.05;;;;;;;;;;5062683;28;20047;-65
2023/10/27 12:57:42;;;;;;;14.55;9.02;;;;;;;;;;5055454;28;20045;-64
2023/10/27 13:00:16;;;;;;;13.30;8.02;;;;;;;;;;5056254;28;20052;-68
2023/10/27 13:02:44;;;;;;;12.40;8.55;;;;;;;;;;5060053;28;20051;-64
2023/10/27 13:05:12;;;;;;;15.98;8.55;;;;;;;;;;5063693;28;20052;-64
2023/10/27 13:07:40;;;;;;;14.07;8.70;;;;;;;;;;5062293;28;20061;-65
2023/10/27 13:10:08;;;;;;;14.27;8.98;;;;;;;;;;5056635;28;20442;-65
2023/10/27 13:12:36;;;;;;;14.85;8.25;;;;;;;;;;5059407;28;20099;-64
2023/10/27 13:15:06;;;;;;;13.88;8.50;;;;;;;;;;5063933;28;20059;-64
2023/10/27 13:17:34;;;;;;;14.82;8.80;;;;;;;;;;5064270;28;20048;-65
2023/10/27 13:20:02;;;;;;;13.43;8.30;;;;;;;;;;5063588;28;20053;-64
2023/10/27 13:22:29;;;;;;;15.63;8.88;;;;;;;;;;5065893;28;20049;-65
2023/10/27 13:24:56;;;;;;;14.68;8.77;;;;;;;;;;5056886;28;20055;-64
2023/10/27 13:27:24;;;;;;;13.38;8.43;;;;;;;;;;5057290;28;20541;-65
2023/10/27 13:29:51;;;;;;;18.60;9.23;;;;;;;;;;5053905;28;20045;-64
2023/10/27 13:32:20;;;;;;;18.83;11.07;;;;;;;;;;5061756;28;20044;-64
2023/10/27 13:34:47;;;;;;;27.63;17.15;;;;;;;;;;5057640;28;20052;-64
2023/10/27 13:37:14;;;;;;;17.85;12.27;;;;;;;;;;5066169;28;20044;-64
2023/10/27 13:39:42;;;;;;;16.10;9.95;;;;;;;;;;5062849;28;20484;-65
2023/10/27 13:42:12;;;;;;;16.83;10.15;;;;;;;;;;5061858;28;20408;-65
2023/10/27 13:44:40;;;;;;;15.43;9.13;;;;;;;;;;5064276;28;20137;-68
2023/10/27 13:47:09;;;;;;;16.05;9.65;;;;;;;;;;5053279;28;20049;-65
2023/10/27 13:49:38;;;;;;;17.38;9.45;;;;;;;;;;5052767;28;20052;-66
2023/10/27 13:52:06;;;;;;;19.75;9.90;;;;;;;;;;5057217;28;20397;-64
2023/10/27 13:54:33;;;;;;;16.45;10.23;;;;;;;;;;5061537;28;20506;-64
2023/10/27 13:57:00;;;;;;;18.60;10.75;;;;;;;;;;5060849;28;20053;-65
2023/10/27 13:59:28;;;;;;;16.58;9.82;;;;;;;;;;5067553;28;20071;-64
2023/10/27 14:01:56;;;;;;;19.50;9.98;;;;;;;;;;5067602;28;20044;-65
2023/10/27 14:04:25;;;;;;;17.38;9.82;;;;;;;;;;5063889;28;20083;-64
2023/10/27 14:06:53;;;;;;;17.75;9.68;;;;;;;;;;5058247;28;20484;-64
2023/10/27 14:09:22;;;;;;;20.27;11.65;;;;;;;;;;5056656;28;20048;-64
2023/10/27 14:11:49;;;;;;;18.90;9.77;;;;;;;;;;5062016;28;20496;-64
2023/10/27 14:14:17;;;;;;;17.85;9.95;;;;;;;;;;5058635;28;20063;-64
2023/10/27 14:16:44;;;;;;;18.45;9.65;;;;;;;;;;5058351;28;20041;-64
2023/10/27 14:19:13;;;;;;;15.40;9.40;;;;;;;;;;5057087;28;20057;-67
2023/10/27 14:21:41;;;;;;;17.40;9.82;;;;;;;;;;5057086;28;20730;-65
2023/10/27 14:24:10;;;;;;;18.83;10.18;;;;;;;;;;5054765;28;20048;-66
2023/10/27 14:26:38;;;;;;;19.05;10.57;;;;;;;;;;5059112;28;20411;-64
2023/10/27 14:29:06;;;;;;;16.85;9.95;;;;;;;;;;5054307;28;20045;-65
2023/10/27 14:31:34;;;;;;;19.42;10.63;;;;;;;;;;5052716;28;20059;-64